Terminal Aerodrome Forecast
Issued by NWS Wakefield, VA

Home | Current Version | Previous Version | Text Only | Print | Product List | Glossary On
Versions: 1 2 3 4 5 6 7 8 9 10 11 12 13 14 15 16 17 18 19
000
FTUS41 KAKQ 040554 RRA
TAFSBY
TAF
KSBY 040554Z 0406/0506 09004KT P6SM -RA SCT020 OVC080
      TEMPO 0406/0410 4SM -RA BR OVC010
     FM041200 12005KT 6SM -RA BR OVC020
     FM041600 28010KT P6SM VCSH SCT015 BKN050
     FM050000 02005KT 5SM BR SCT015 OVC050=

USA.gov is the U.S. government's official web portal to all federal, state and local government web resources and services.